sensor_id;sensor_type;location;lat;lon;timestamp;temperature;humidity
14783;DHT22;7483;50.498;12.138;2023-02-28T00:01:41;-0.10;99.90
14783;DHT22;7483;50.498;12.138;2023-02-28T00:04:10;-0.10;99.90
14783;DHT22;7483;50.498;12.138;2023-02-28T00:06:38;-0.10;99.90
14783;DHT22;7483;50.498;12.138;2023-02-28T00:09:06;-0.10;99.90
14783;DHT22;7483;50.498;12.138;2023-02-28T00:11:34;-0.10;99.90
14783;DHT22;7483;50.498;12.138;2023-02-28T00:14:04;-0.10;99.90
14783;DHT22;7483;50.498;12.138;2023-02-28T00:16:32;-0.10;99.90
14783;DHT22;7483;50.498;12.138;2023-02-28T00:19:00;-0.20;99.90
14783;DHT22;7483;50.498;12.138;2023-02-28T00:21:29;-0.20;99.90
14783;DHT22;7483;50.498;12.138;2023-02-28T00:23:57;-0.20;99.90
14783;DHT22;7483;50.498;12.138;2023-02-28T00:26:25;-0.20;99.90
14783;DHT22;7483;50.498;12.138;2023-02-28T00:28:53;-0.20;99.90
14783;DHT22;7483;50.498;12.138;2023-02-28T00:31:22;-0.20;99.90
14783;DHT22;7483;50.498;12.138;2023-02-28T00:33:50;-0.20;99.90
14783;DHT22;7483;50.498;12.138;2023-02-28T00:36:20;-0.20;99.90
14783;DHT22;7483;50.498;12.138;2023-02-28T00:38:49;-0.30;99.90
14783;DHT22;7483;50.498;12.138;2023-02-28T00:41:17;-0.30;99.90
14783;DHT22;7483;50.498;12.138;2023-02-28T00:43:46;-0.30;99.90
14783;DHT22;7483;50.498;12.138;2023-02-28T00:46:15;-0.30;99.90
14783;DHT22;7483;50.498;12.138;2023-02-28T00:48:43;-0.30;99.90
14783;DHT22;7483;50.498;12.138;2023-02-28T00:51:12;-0.40;99.90
14783;DHT22;7483;50.498;12.138;2023-02-28T00:53:40;-0.30;99.90
14783;DHT22;7483;50.498;12.138;2023-02-28T00:56:09;-0.30;99.90
14783;DHT22;7483;50.498;12.138;2023-02-28T00:58:37;-0.30;99.90
14783;DHT22;7483;50.498;12.138;2023-02-28T01:01:05;-0.30;99.90
14783;DHT22;7483;50.498;12.138;2023-02-28T01:03:34;-0.30;99.90
14783;DHT22;7483;50.498;12.138;2023-02-28T01:06:02;-0.30;99.90
14783;DHT22;7483;50.498;12.138;2023-02-28T01:08:30;-0.40;99.90
14783;DHT22;7483;50.498;12.138;2023-02-28T01:11:09;-0.40;99.90
14783;DHT22;7483;50.498;12.138;2023-02-28T01:13:40;-0.40;99.90
14783;DHT22;7483;50.498;12.138;2023-02-28T01:16:08;-0.40;99.90
14783;DHT22;7483;50.498;12.138;2023-02-28T01:18:36;-0.40;99.90
14783;DHT22;7483;50.498;12.138;2023-02-28T01:21:05;-0.40;99.90
14783;DHT22;7483;50.498;12.138;2023-02-28T01:23:34;-0.40;99.90
14783;DHT22;7483;50.498;12.138;2023-02-28T01:26:06;-0.40;99.90
14783;DHT22;7483;50.498;12.138;2023-02-28T01:28:40;-0.40;99.90
14783;DHT22;7483;50.498;12.138;2023-02-28T01:31:08;-0.40;99.90
14783;DHT22;7483;50.498;12.138;2023-02-28T01:33:38;-0.40;99.90
14783;DHT22;7483;50.498;12.138;2023-02-28T01:36:09;-0.40;99.90
14783;DHT22;7483;50.498;12.138;2023-02-28T01:38:39;-0.30;99.90
14783;DHT22;7483;50.498;12.138;2023-02-28T01:41:08;-0.30;99.90
14783;DHT22;7483;50.498;12.138;2023-02-28T01:43:58;-0.40;99.90
14783;DHT22;7483;50.498;12.138;2023-02-28T01:46:32;-0.30;99.90
14783;DHT22;7483;50.498;12.138;2023-02-28T01:49:05;-0.30;99.90
14783;DHT22;7483;50.498;12.138;2023-02-28T01:51:40;-0.30;99.90
14783;DHT22;7483;50.498;12.138;2023-02-28T01:54:21;-0.30;99.90
14783;DHT22;7483;50.498;12.138;2023-02-28T01:56:53;-0.40;99.90
14783;DHT22;7483;50.498;12.138;2023-02-28T01:59:29;-0.40;99.90
14783;DHT22;7483;50.498;12.138;2023-02-28T02:02:01;-0.40;99.90
14783;DHT22;7483;50.498;12.138;2023-02-28T02:04:36;-0.40;99.90
14783;DHT22;7483;50.498;12.138;2023-02-28T02:07:08;-0.40;99.90
14783;DHT22;7483;50.498;12.138;2023-02-28T02:09:37;-0.40;99.90
14783;DHT22;7483;50.498;12.138;2023-02-28T02:12:10;-0.40;99.90
14783;DHT22;7483;50.498;12.138;2023-02-28T02:15:00;-0.40;99.90
14783;DHT22;7483;50.498;12.138;2023-02-28T02:17:36;-0.40;99.90
14783;DHT22;7483;50.498;12.138;2023-02-28T02:20:42;-0.50;99.90
14783;DHT22;7483;50.498;12.138;2023-02-28T02:24:09;-0.50;99.90
14783;DHT22;7483;50.498;12.138;2023-02-28T02:27:17;-0.50;99.90
14783;DHT22;7483;50.498;12.138;2023-02-28T02:30:18;-0.50;99.90
14783;DHT22;7483;50.498;12.138;2023-02-28T02:33:26;-0.50;99.90
14783;DHT22;7483;50.498;12.138;2023-02-28T02:36:13;-0.50;99.90
14783;DHT22;7483;50.498;12.138;2023-02-28T02:38:49;-0.50;99.90
14783;DHT22;7483;50.498;12.138;2023-02-28T02:41:26;-0.60;99.90
14783;DHT22;7483;50.498;12.138;2023-02-28T02:44:09;-0.50;99.90
14783;DHT22;7483;50.498;12.138;2023-02-28T02:46:43;-0.50;99.90
14783;DHT22;7483;50.498;12.138;2023-02-28T02:49:16;-0.50;99.90
14783;DHT22;7483;50.498;12.138;2023-02-28T02:51:49;-0.50;99.90
14783;DHT22;7483;50.498;12.138;2023-02-28T02:54:23;-0.50;99.90
14783;DHT22;7483;50.498;12.138;2023-02-28T02:56:58;-0.50;99.90
14783;DHT22;7483;50.498;12.138;2023-02-28T02:59:30;-0.50;99.90
14783;DHT22;7483;50.498;12.138;2023-02-28T03:02:02;-0.50;99.90
14783;DHT22;7483;50.498;12.138;2023-02-28T03:04:37;-0.50;99.90
14783;DHT22;7483;50.498;12.138;2023-02-28T03:07:11;-0.50;99.90
14783;DHT22;7483;50.498;12.138;2023-02-28T03:09:39;-0.50;99.90
14783;DHT22;7483;50.498;12.138;2023-02-28T03:12:11;-0.50;99.90
14783;DHT22;7483;50.498;12.138;2023-02-28T03:14:50;-0.50;99.90
14783;DHT22;7483;50.498;12.138;2023-02-28T03:17:47;-0.50;99.90
14783;DHT22;7483;50.498;12.138;2023-02-28T03:20:35;-0.50;99.90
14783;DHT22;7483;50.498;12.138;2023-02-28T03:23:16;-0.50;99.90
14783;DHT22;7483;50.498;12.138;2023-02-28T03:25:54;-0.60;99.90
14783;DHT22;7483;50.498;12.138;2023-02-28T03:28:31;-0.60;99.90
14783;DHT22;7483;50.498;12.138;2023-02-28T03:31:13;-0.60;99.90
14783;DHT22;7483;50.498;12.138;2023-02-28T03:33:50;-0.60;99.90
14783;DHT22;7483;50.498;12.138;2023-02-28T03:36:25;-0.60;99.90
14783;DHT22;7483;50.498;12.138;2023-02-28T03:38:59;-0.60;99.90
14783;DHT22;7483;50.498;12.138;2023-02-28T03:41:32;-0.60;99.90
14783;DHT22;7483;50.498;12.138;2023-02-28T03:44:09;-0.60;99.90
14783;DHT22;7483;50.498;12.138;2023-02-28T03:46:46;-0.60;99.90
14783;DHT22;7483;50.498;12.138;2023-02-28T03:49:21;-0.60;99.90
14783;DHT22;7483;50.498;12.138;2023-02-28T03:51:54;-0.60;99.90
14783;DHT22;7483;50.498;12.138;2023-02-28T03:54:31;-0.70;99.90
14783;DHT22;7483;50.498;12.138;2023-02-28T03:57:05;-0.60;99.90
14783;DHT22;7483;50.498;12.138;2023-02-28T03:59:42;-0.60;99.90
14783;DHT22;7483;50.498;12.138;2023-02-28T04:02:12;-0.60;99.90
14783;DHT22;7483;50.498;12.138;2023-02-28T04:04:41;-0.60;99.90
14783;DHT22;7483;50.498;12.138;2023-02-28T04:07:12;-0.60;99.90
14783;DHT22;7483;50.498;12.138;2023-02-28T04:09:41;-0.60;99.90
14783;DHT22;7483;50.498;12.138;2023-02-28T04:12:09;-0.60;99.90
14783;DHT22;7483;50.498;12.138;2023-02-28T04:14:37;-0.60;99.90
14783;DHT22;7483;50.498;12.138;2023-02-28T04:17:05;-0.60;99.90
14783;DHT22;7483;50.498;12.138;2023-02-28T04:19:33;-0.60;99.90
14783;DHT22;7483;50.498;12.138;2023-02-28T04:22:01;-0.60;99.90
14783;DHT22;7483;50.498;12.138;2023-02-28T04:24:29;-0.70;99.90
14783;DHT22;7483;50.498;12.138;2023-02-28T04:26:59;-0.70;99.90
14783;DHT22;7483;50.498;12.138;2023-02-28T04:29:28;-0.60;99.90
14783;DHT22;7483;50.498;12.138;2023-02-28T04:31:59;-0.70;99.90
14783;DHT22;7483;50.498;12.138;2023-02-28T04:34:30;-0.70;99.90
14783;DHT22;7483;50.498;12.138;2023-02-28T04:36:59;-0.70;99.90
14783;DHT22;7483;50.498;12.138;2023-02-28T04:39:40;-0.70;99.90
14783;DHT22;7483;50.498;12.138;2023-02-28T04:42:10;-0.70;99.90
14783;DHT22;7483;50.498;12.138;2023-02-28T04:44:39;-0.70;99.90
14783;DHT22;7483;50.498;12.138;2023-02-28T04:47:07;-0.70;99.90
14783;DHT22;7483;50.498;12.138;2023-02-28T04:49:35;-0.70;99.90
14783;DHT22;7483;50.498;12.138;2023-02-28T04:52:03;-0.70;99.90
14783;DHT22;7483;50.498;12.138;2023-02-28T04:54:31;-0.80;99.90
14783;DHT22;7483;50.498;12.138;2023-02-28T04:56:59;-0.80;99.90
14783;DHT22;7483;50.498;12.138;2023-02-28T04:59:29;-0.80;99.90
14783;DHT22;7483;50.498;12.138;2023-02-28T05:01:57;-0.80;99.90
14783;DHT22;7483;50.498;12.138;2023-02-28T05:04:25;-0.80;99.90
14783;DHT22;7483;50.498;12.138;2023-02-28T05:06:53;-0.90;99.90
14783;DHT22;7483;50.498;12.138;2023-02-28T05:09:21;-0.90;99.90
14783;DHT22;7483;50.498;12.138;2023-02-28T05:11:49;-0.90;99.90
14783;DHT22;7483;50.498;12.138;2023-02-28T05:14:17;-0.90;99.90
14783;DHT22;7483;50.498;12.138;2023-02-28T05:16:47;-0.90;99.90
14783;DHT22;7483;50.498;12.138;2023-02-28T05:19:15;-0.90;99.90
14783;DHT22;7483;50.498;12.138;2023-02-28T05:21:49;-0.90;99.90
14783;DHT22;7483;50.498;12.138;2023-02-28T05:24:20;-0.90;99.90
14783;DHT22;7483;50.498;12.138;2023-02-28T05:26:51;-0.90;99.90
14783;DHT22;7483;50.498;12.138;2023-02-28T05:29:20;-0.90;99.90
14783;DHT22;7483;50.498;12.138;2023-02-28T05:31:50;-0.90;99.90
14783;DHT22;7483;50.498;12.138;2023-02-28T05:34:18;-0.90;99.90
14783;DHT22;7483;50.498;12.138;2023-02-28T05:36:46;-0.90;99.90
14783;DHT22;7483;50.498;12.138;2023-02-28T05:39:14;-1.00;99.90
14783;DHT22;7483;50.498;12.138;2023-02-28T05:41:42;-0.90;99.90
14783;DHT22;7483;50.498;12.138;2023-02-28T05:44:11;-0.90;99.90
14783;DHT22;7483;50.498;12.138;2023-02-28T05:46:39;-0.90;99.90
14783;DHT22;7483;50.498;12.138;2023-02-28T05:49:08;-0.90;99.90
14783;DHT22;7483;50.498;12.138;2023-02-28T05:51:36;-0.90;99.90
14783;DHT22;7483;50.498;12.138;2023-02-28T05:54:07;-0.90;99.90
14783;DHT22;7483;50.498;12.138;2023-02-28T05:56:35;-0.80;99.90
14783;DHT22;7483;50.498;12.138;2023-02-28T05:59:05;-0.80;99.90
14783;DHT22;7483;50.498;12.138;2023-02-28T06:01:35;-0.80;99.90
14783;DHT22;7483;50.498;12.138;2023-02-28T06:04:06;-0.80;99.90
14783;DHT22;7483;50.498;12.138;2023-02-28T06:06:50;-0.70;99.90
14783;DHT22;7483;50.498;12.138;2023-02-28T06:09:18;-0.70;99.90
14783;DHT22;7483;50.498;12.138;2023-02-28T06:11:46;-0.80;99.90
14783;DHT22;7483;50.498;12.138;2023-02-28T06:14:16;-0.80;99.90
14783;DHT22;7483;50.498;12.138;2023-02-28T06:16:45;-0.70;99.90
14783;DHT22;7483;50.498;12.138;2023-02-28T06:19:13;-0.80;99.90
14783;DHT22;7483;50.498;12.138;2023-02-28T06:21:42;-0.80;99.90
14783;DHT22;7483;50.498;12.138;2023-02-28T06:24:12;-0.80;99.90
14783;DHT22;7483;50.498;12.138;2023-02-28T06:26:40;-0.80;99.90
14783;DHT22;7483;50.498;12.138;2023-02-28T06:29:07;-0.80;99.90
14783;DHT22;7483;50.498;12.138;2023-02-28T06:31:35;-0.90;99.90
14783;DHT22;7483;50.498;12.138;2023-02-28T06:34:05;-0.90;99.90
14783;DHT22;7483;50.498;12.138;2023-02-28T06:36:33;-0.90;99.90
14783;DHT22;7483;50.498;12.138;2023-02-28T06:39:00;-0.90;99.90
14783;DHT22;7483;50.498;12.138;2023-02-28T06:41:30;-0.90;99.90
14783;DHT22;7483;50.498;12.138;2023-02-28T06:44:15;-0.80;99.90
14783;DHT22;7483;50.498;12.138;2023-02-28T06:46:45;-0.80;99.90
14783;DHT22;7483;50.498;12.138;2023-02-28T06:49:13;-0.80;99.90
14783;DHT22;7483;50.498;12.138;2023-02-28T06:51:43;-0.70;99.90
14783;DHT22;7483;50.498;12.138;2023-02-28T06:54:13;-0.70;99.90
14783;DHT22;7483;50.498;12.138;2023-02-28T06:56:43;-0.70;99.90
14783;DHT22;7483;50.498;12.138;2023-02-28T06:59:11;-0.70;99.90
14783;DHT22;7483;50.498;12.138;2023-02-28T07:01:39;-0.70;99.90
14783;DHT22;7483;50.498;12.138;2023-02-28T07:04:07;-0.70;99.90
14783;DHT22;7483;50.498;12.138;2023-02-28T07:06:35;-0.60;99.90
14783;DHT22;7483;50.498;12.138;2023-02-28T07:09:03;-0.60;99.90
14783;DHT22;7483;50.498;12.138;2023-02-28T07:11:32;-0.60;99.90
14783;DHT22;7483;50.498;12.138;2023-02-28T07:14:01;-0.60;99.90
14783;DHT22;7483;50.498;12.138;2023-02-28T07:16:29;-0.60;99.90
14783;DHT22;7483;50.498;12.138;2023-02-28T07:18:58;-0.60;99.90
14783;DHT22;7483;50.498;12.138;2023-02-28T07:21:26;-0.60;99.90
14783;DHT22;7483;50.498;12.138;2023-02-28T07:23:55;-0.50;99.90
14783;DHT22;7483;50.498;12.138;2023-02-28T07:26:24;-0.50;99.90
14783;DHT22;7483;50.498;12.138;2023-02-28T07:28:52;-0.50;99.90
14783;DHT22;7483;50.498;12.138;2023-02-28T07:31:22;-0.50;99.90
14783;DHT22;7483;50.498;12.138;2023-02-28T07:33:50;-0.40;99.90
14783;DHT22;7483;50.498;12.138;2023-02-28T07:36:18;-0.30;99.90
14783;DHT22;7483;50.498;12.138;2023-02-28T07:38:47;-0.30;99.90
14783;DHT22;7483;50.498;12.138;2023-02-28T07:41:17;-0.30;99.90
14783;DHT22;7483;50.498;12.138;2023-02-28T07:43:47;-0.30;99.90
14783;DHT22;7483;50.498;12.138;2023-02-28T07:46:16;-0.30;99.90
14783;DHT22;7483;50.498;12.138;2023-02-28T07:48:48;-0.20;99.90
14783;DHT22;7483;50.498;12.138;2023-02-28T07:51:16;-0.10;99.90
14783;DHT22;7483;50.498;12.138;2023-02-28T07:53:44;-0.10;99.90
14783;DHT22;7483;50.498;12.138;2023-02-28T07:56:12;0.00;99.90
14783;DHT22;7483;50.498;12.138;2023-02-28T07:58:40;0.00;99.90
14783;DHT22;7483;50.498;12.138;2023-02-28T08:01:09;0.00;99.90
14783;DHT22;7483;50.498;12.138;2023-02-28T08:03:38;0.20;99.90
14783;DHT22;7483;50.498;12.138;2023-02-28T08:06:16;0.20;99.90
14783;DHT22;7483;50.498;12.138;2023-02-28T08:08:46;0.30;99.90
14783;DHT22;7483;50.498;12.138;2023-02-28T08:11:15;0.20;99.90
14783;DHT22;7483;50.498;12.138;2023-02-28T08:13:44;0.20;99.90
14783;DHT22;7483;50.498;12.138;2023-02-28T08:16:13;0.30;99.90
14783;DHT22;7483;50.498;12.138;2023-02-28T08:18:44;0.30;99.90
14783;DHT22;7483;50.498;12.138;2023-02-28T08:21:13;0.40;99.90
14783;DHT22;7483;50.498;12.138;2023-02-28T08:23:41;0.40;99.90
14783;DHT22;7483;50.498;12.138;2023-02-28T08:26:09;0.40;99.90
14783;DHT22;7483;50.498;12.138;2023-02-28T08:28:37;0.40;99.90
14783;DHT22;7483;50.498;12.138;2023-02-28T08:31:09;0.50;99.90
14783;DHT22;7483;50.498;12.138;2023-02-28T08:33:40;0.50;99.90
14783;DHT22;7483;50.498;12.138;2023-02-28T08:36:09;0.50;99.90
14783;DHT22;7483;50.498;12.138;2023-02-28T08:38:39;0.60;99.90
14783;DHT22;7483;50.498;12.138;2023-02-28T08:41:09;0.60;99.90
14783;DHT22;7483;50.498;12.138;2023-02-28T08:43:39;0.60;99.90
14783;DHT22;7483;50.498;12.138;2023-02-28T08:46:08;0.70;99.90
14783;DHT22;7483;50.498;12.138;2023-02-28T08:48:40;0.70;99.90
14783;DHT22;7483;50.498;12.138;2023-02-28T08:51:10;0.80;99.90
14783;DHT22;7483;50.498;12.138;2023-02-28T08:53:41;0.80;99.90
14783;DHT22;7483;50.498;12.138;2023-02-28T08:56:12;0.90;99.90
14783;DHT22;7483;50.498;12.138;2023-02-28T08:58:43;0.90;99.90
14783;DHT22;7483;50.498;12.138;2023-02-28T09:01:14;1.00;99.90
14783;DHT22;7483;50.498;12.138;2023-02-28T09:03:44;1.00;99.90
14783;DHT22;7483;50.498;12.138;2023-02-28T09:06:15;1.10;99.90
14783;DHT22;7483;50.498;12.138;2023-02-28T09:08:45;1.10;99.90
14783;DHT22;7483;50.498;12.138;2023-02-28T09:11:13;1.10;99.90
14783;DHT22;7483;50.498;12.138;2023-02-28T09:13:41;1.20;99.90
14783;DHT22;7483;50.498;12.138;2023-02-28T09:16:11;1.20;99.90
14783;DHT22;7483;50.498;12.138;2023-02-28T09:18:43;1.20;99.90
14783;DHT22;7483;50.498;12.138;2023-02-28T09:21:14;1.30;99.90
14783;DHT22;7483;50.498;12.138;2023-02-28T09:23:46;1.30;99.90
14783;DHT22;7483;50.498;12.138;2023-02-28T09:26:16;1.50;99.90
14783;DHT22;7483;50.498;12.138;2023-02-28T09:28:46;1.60;99.90
14783;DHT22;7483;50.498;12.138;2023-02-28T09:31:15;1.50;99.90
14783;DHT22;7483;50.498;12.138;2023-02-28T09:33:47;1.60;99.90
14783;DHT22;7483;50.498;12.138;2023-02-28T09:36:16;1.60;99.90
14783;DHT22;7483;50.498;12.138;2023-02-28T09:38:46;1.60;99.90
14783;DHT22;7483;50.498;12.138;2023-02-28T09:41:17;1.70;99.90
14783;DHT22;7483;50.498;12.138;2023-02-28T09:43:50;1.70;99.90
14783;DHT22;7483;50.498;12.138;2023-02-28T09:46:28;1.80;99.90
14783;DHT22;7483;50.498;12.138;2023-02-28T09:49:02;1.80;99.90
14783;DHT22;7483;50.498;12.138;2023-02-28T09:51:40;1.90;99.90
14783;DHT22;7483;50.498;12.138;2023-02-28T09:54:18;1.80;99.90
14783;DHT22;7483;50.498;12.138;2023-02-28T09:56:51;1.80;99.90
14783;DHT22;7483;50.498;12.138;2023-02-28T09:59:42;1.90;99.90
14783;DHT22;7483;50.498;12.138;2023-02-28T10:02:38;1.90;99.90
14783;DHT22;7483;50.498;12.138;2023-02-28T10:05:18;2.00;99.90
14783;DHT22;7483;50.498;12.138;2023-02-28T10:07:59;2.10;99.90
14783;DHT22;7483;50.498;12.138;2023-02-28T10:10:37;2.10;99.90
14783;DHT22;7483;50.498;12.138;2023-02-28T10:13:16;2.20;99.90
14783;DHT22;7483;50.498;12.138;2023-02-28T10:15:52;2.20;99.90
14783;DHT22;7483;50.498;12.138;2023-02-28T10:18:28;2.30;99.90
14783;DHT22;7483;50.498;12.138;2023-02-28T10:21:03;2.20;99.90
14783;DHT22;7483;50.498;12.138;2023-02-28T10:23:34;2.20;99.90
14783;DHT22;7483;50.498;12.138;2023-02-28T10:26:11;2.20;99.90
14783;DHT22;7483;50.498;12.138;2023-02-28T10:28:42;2.20;99.90
14783;DHT22;7483;50.498;12.138;2023-02-28T10:31:12;2.20;99.90
14783;DHT22;7483;50.498;12.138;2023-02-28T10:33:45;2.20;99.90
14783;DHT22;7483;50.498;12.138;2023-02-28T10:36:15;2.30;99.90
14783;DHT22;7483;50.498;12.138;2023-02-28T10:38:46;2.40;99.90
14783;DHT22;7483;50.498;12.138;2023-02-28T10:41:26;2.50;99.90
14783;DHT22;7483;50.498;12.138;2023-02-28T10:44:14;2.50;99.90
14783;DHT22;7483;50.498;12.138;2023-02-28T10:46:48;2.50;99.90
14783;DHT22;7483;50.498;12.138;2023-02-28T10:49:19;2.50;99.90
14783;DHT22;7483;50.498;12.138;2023-02-28T10:51:52;2.50;99.90
14783;DHT22;7483;50.498;12.138;2023-02-28T10:54:26;2.50;99.90
14783;DHT22;7483;50.498;12.138;2023-02-28T10:57:15;2.60;99.90
14783;DHT22;7483;50.498;12.138;2023-02-28T10:59:46;2.70;99.90
14783;DHT22;7483;50.498;12.138;2023-02-28T11:02:32;2.70;99.90
14783;DHT22;7483;50.498;12.138;2023-02-28T11:05:02;2.80;99.90
14783;DHT22;7483;50.498;12.138;2023-02-28T11:07:51;2.80;99.90
14783;DHT22;7483;50.498;12.138;2023-02-28T11:10:23;2.80;99.90
14783;DHT22;7483;50.498;12.138;2023-02-28T11:12:56;2.80;99.90
14783;DHT22;7483;50.498;12.138;2023-02-28T11:15:28;2.80;99.90
14783;DHT22;7483;50.498;12.138;2023-02-28T11:18:00;2.70;99.90
14783;DHT22;7483;50.498;12.138;2023-02-28T11:20:32;2.70;99.90
14783;DHT22;7483;50.498;12.138;2023-02-28T11:23:02;2.70;99.90
14783;DHT22;7483;50.498;12.138;2023-02-28T11:25:34;2.80;99.90
14783;DHT22;7483;50.498;12.138;2023-02-28T11:28:24;2.80;99.90
14783;DHT22;7483;50.498;12.138;2023-02-28T11:31:02;3.00;99.90
14783;DHT22;7483;50.498;12.138;2023-02-28T11:33:40;3.00;99.90
14783;DHT22;7483;50.498;12.138;2023-02-28T11:36:13;3.00;99.90
14783;DHT22;7483;50.498;12.138;2023-02-28T11:38:46;3.10;99.90
14783;DHT22;7483;50.498;12.138;2023-02-28T11:41:34;3.10;99.90
14783;DHT22;7483;50.498;12.138;2023-02-28T11:44:27;3.20;99.90
14783;DHT22;7483;50.498;12.138;2023-02-28T11:47:09;3.40;99.90
14783;DHT22;7483;50.498;12.138;2023-02-28T11:49:47;3.60;99.90
14783;DHT22;7483;50.498;12.138;2023-02-28T11:52:32;3.80;99.90
14783;DHT22;7483;50.498;12.138;2023-02-28T11:55:14;4.00;99.90
14783;DHT22;7483;50.498;12.138;2023-02-28T12:17:34;4.70;99.90
14783;DHT22;7483;50.498;12.138;2023-02-28T12:20:34;5.30;99.90
14783;DHT22;7483;50.498;12.138;2023-02-28T12:23:49;5.50;99.90
14783;DHT22;7483;50.498;12.138;2023-02-28T12:26:34;5.60;99.90
14783;DHT22;7483;50.498;12.138;2023-02-28T12:29:11;5.80;99.90
14783;DHT22;7483;50.498;12.138;2023-02-28T12:31:47;6.00;99.90
14783;DHT22;7483;50.498;12.138;2023-02-28T12:34:22;5.90;99.90
14783;DHT22;7483;50.498;12.138;2023-02-28T12:36:56;6.00;99.90
14783;DHT22;7483;50.498;12.138;2023-02-28T12:39:31;6.20;99.90
14783;DHT22;7483;50.498;12.138;2023-02-28T12:42:19;6.30;99.90
14783;DHT22;7483;50.498;12.138;2023-02-28T12:44:58;6.10;99.90
14783;DHT22;7483;50.498;12.138;2023-02-28T12:47:28;6.10;99.90
14783;DHT22;7483;50.498;12.138;2023-02-28T12:50:02;6.30;99.90
14783;DHT22;7483;50.498;12.138;2023-02-28T12:52:41;6.40;99.90
14783;DHT22;7483;50.498;12.138;2023-02-28T12:55:23;6.40;99.90
14783;DHT22;7483;50.498;12.138;2023-02-28T12:58:05;6.50;99.90
14783;DHT22;7483;50.498;12.138;2023-02-28T13:00:49;6.50;99.90
14783;DHT22;7483;50.498;12.138;2023-02-28T13:03:52;6.50;99.90
14783;DHT22;7483;50.498;12.138;2023-02-28T13:06:49;7.00;99.90
14783;DHT22;7483;50.498;12.138;2023-02-28T13:09:33;7.10;99.90
14783;DHT22;7483;50.498;12.138;2023-02-28T13:12:12;7.30;99.90
14783;DHT22;7483;50.498;12.138;2023-02-28T13:14:41;7.10;99.90
14783;DHT22;7483;50.498;12.138;2023-02-28T13:17:11;7.10;99.90
14783;DHT22;7483;50.498;12.138;2023-02-28T13:19:56;7.10;99.90
14783;DHT22;7483;50.498;12.138;2023-02-28T13:22:39;7.00;99.90
14783;DHT22;7483;50.498;12.138;2023-02-28T13:35:44;7.10;99.90
14783;DHT22;7483;50.498;12.138;2023-02-28T13:38:36;7.00;99.90
14783;DHT22;7483;50.498;12.138;2023-02-28T13:41:44;7.00;99.90
14783;DHT22;7483;50.498;12.138;2023-02-28T13:44:16;6.90;99.90
14783;DHT22;7483;50.498;12.138;2023-02-28T13:47:21;7.00;99.90
14783;DHT22;7483;50.498;12.138;2023-02-28T13:49:52;6.90;99.90
14783;DHT22;7483;50.498;12.138;2023-02-28T13:52:23;6.80;99.90
14783;DHT22;7483;50.498;12.138;2023-02-28T13:55:19;6.80;99.90
14783;DHT22;7483;50.498;12.138;2023-02-28T13:58:07;6.90;99.90
14783;DHT22;7483;50.498;12.138;2023-02-28T14:01:07;6.70;99.90
14783;DHT22;7483;50.498;12.138;2023-02-28T14:06:59;6.90;99.90
14783;DHT22;7483;50.498;12.138;2023-02-28T14:09:30;7.10;99.90
14783;DHT22;7483;50.498;12.138;2023-02-28T14:15:41;7.00;99.90
14783;DHT22;7483;50.498;12.138;2023-02-28T14:18:17;7.00;99.90
14783;DHT22;7483;50.498;12.138;2023-02-28T14:20:57;6.90;99.90
14783;DHT22;7483;50.498;12.138;2023-02-28T14:23:43;7.00;99.90
14783;DHT22;7483;50.498;12.138;2023-02-28T14:26:33;6.80;99.90
14783;DHT22;7483;50.498;12.138;2023-02-28T14:29:30;6.40;99.90
14783;DHT22;7483;50.498;12.138;2023-02-28T14:32:15;6.10;99.90
14783;DHT22;7483;50.498;12.138;2023-02-28T14:34:54;5.90;99.90
14783;DHT22;7483;50.498;12.138;2023-02-28T14:37:30;5.80;99.90
14783;DHT22;7483;50.498;12.138;2023-02-28T14:40:02;5.70;99.90
14783;DHT22;7483;50.498;12.138;2023-02-28T14:42:34;5.50;99.90
14783;DHT22;7483;50.498;12.138;2023-02-28T14:45:16;5.10;99.90
14783;DHT22;7483;50.498;12.138;2023-02-28T14:47:46;5.00;99.90
14783;DHT22;7483;50.498;12.138;2023-02-28T14:50:20;5.00;99.90
14783;DHT22;7483;50.498;12.138;2023-02-28T14:52:52;5.00;99.90
14783;DHT22;7483;50.498;12.138;2023-02-28T14:55:25;4.90;99.90
14783;DHT22;7483;50.498;12.138;2023-02-28T14:57:57;4.90;99.90
14783;DHT22;7483;50.498;12.138;2023-02-28T15:00:29;4.90;99.90
14783;DHT22;7483;50.498;12.138;2023-02-28T15:03:01;4.80;99.90
14783;DHT22;7483;50.498;12.138;2023-02-28T15:05:52;4.70;99.90
14783;DHT22;7483;50.498;12.138;2023-02-28T15:08:21;4.70;99.90
14783;DHT22;7483;50.498;12.138;2023-02-28T15:10:53;4.60;99.90
14783;DHT22;7483;50.498;12.138;2023-02-28T15:13:35;4.60;99.90
14783;DHT22;7483;50.498;12.138;2023-02-28T15:16:11;4.50;99.90
14783;DHT22;7483;50.498;12.138;2023-02-28T15:18:49;4.40;99.90
14783;DHT22;7483;50.498;12.138;2023-02-28T15:21:21;4.40;99.90
14783;DHT22;7483;50.498;12.138;2023-02-28T15:23:53;4.40;99.90
14783;DHT22;7483;50.498;12.138;2023-02-28T15:26:27;4.40;99.90
14783;DHT22;7483;50.498;12.138;2023-02-28T15:29:01;4.50;99.90
14783;DHT22;7483;50.498;12.138;2023-02-28T15:31:35;4.50;99.90
14783;DHT22;7483;50.498;12.138;2023-02-28T15:34:28;4.40;99.90
14783;DHT22;7483;50.498;12.138;2023-02-28T15:37:28;4.30;99.90
14783;DHT22;7483;50.498;12.138;2023-02-28T15:40:10;4.20;99.90
14783;DHT22;7483;50.498;12.138;2023-02-28T15:42:41;4.10;99.90
14783;DHT22;7483;50.498;12.138;2023-02-28T15:45:32;4.10;99.90
14783;DHT22;7483;50.498;12.138;2023-02-28T15:48:09;4.00;99.90
14783;DHT22;7483;50.498;12.138;2023-02-28T15:50:44;3.90;99.90
14783;DHT22;7483;50.498;12.138;2023-02-28T15:53:16;3.80;99.90
14783;DHT22;7483;50.498;12.138;2023-02-28T15:55:56;3.80;99.90
14783;DHT22;7483;50.498;12.138;2023-02-28T15:58:27;3.80;99.90
14783;DHT22;7483;50.498;12.138;2023-02-28T16:01:08;3.80;99.90
14783;DHT22;7483;50.498;12.138;2023-02-28T16:03:49;3.80;99.90
14783;DHT22;7483;50.498;12.138;2023-02-28T16:06:32;3.70;99.90
14783;DHT22;7483;50.498;12.138;2023-02-28T16:09:07;3.70;99.90
14783;DHT22;7483;50.498;12.138;2023-02-28T16:11:40;3.70;99.90
14783;DHT22;7483;50.498;12.138;2023-02-28T16:14:14;3.70;99.90
14783;DHT22;7483;50.498;12.138;2023-02-28T16:16:48;3.60;99.90
14783;DHT22;7483;50.498;12.138;2023-02-28T16:19:20;3.70;99.90
14783;DHT22;7483;50.498;12.138;2023-02-28T16:21:48;3.60;99.90
14783;DHT22;7483;50.498;12.138;2023-02-28T16:24:16;3.50;99.90
14783;DHT22;7483;50.498;12.138;2023-02-28T16:26:46;3.50;99.90
14783;DHT22;7483;50.498;12.138;2023-02-28T16:29:20;3.50;99.90
14783;DHT22;7483;50.498;12.138;2023-02-28T16:31:52;3.40;99.90
14783;DHT22;7483;50.498;12.138;2023-02-28T16:34:24;3.30;99.90
14783;DHT22;7483;50.498;12.138;2023-02-28T16:36:53;3.30;99.90
14783;DHT22;7483;50.498;12.138;2023-02-28T16:39:21;3.30;99.90
14783;DHT22;7483;50.498;12.138;2023-02-28T16:41:50;3.30;99.90
14783;DHT22;7483;50.498;12.138;2023-02-28T16:44:27;3.30;99.90
14783;DHT22;7483;50.498;12.138;2023-02-28T16:46:56;3.30;99.90
14783;DHT22;7483;50.498;12.138;2023-02-28T16:49:25;3.20;99.90
14783;DHT22;7483;50.498;12.138;2023-02-28T16:51:53;3.30;99.90
14783;DHT22;7483;50.498;12.138;2023-02-28T16:54:21;3.20;99.90
14783;DHT22;7483;50.498;12.138;2023-02-28T16:56:50;3.10;99.90
14783;DHT22;7483;50.498;12.138;2023-02-28T16:59:22;3.10;99.90